Nachusa, IL

8:33 AM CDT on March 30, 2017 (GMT -0500)
MUP060 | | Change Station

Elev 783 ft 41.83 °N, 89.43 °W | Updated 1 hour ago

Light Rain
Light Rain
40.0 °F
Feels Like 40.0 °F
N
-
Wind Variable Wind from North

Today
High -- | Low -- °F
--% Chance of Precip.
Yesterday
High -- | Low -- °F
Precip. -- in
Pressure 29.76 in
Visibility 10.0 miles
Clouds Overcast 1000 ft
Dew Point Not available.
Humidity Not available.
Rainfall in
Snow Depth Not available.
6:43 AM 7:21 PM
Waxing Crescent, 8% visible
METAR KSQI 301256Z AUTO 07017KT 10SM -RA OVC010 07/06 A2968 RMK AO2 SLP076 P0000 T00670056
Pressure 29.76 in
Visibility 10.0 miles
Clouds Overcast 1000 ft
Dew Point Not available.
Humidity Not available.
Rainfall in
Snow Depth Not available.
6:43 AM 7:21 PM
Waxing Crescent, 8% visible
METAR KSQI 301256Z AUTO 07017KT 10SM -RA OVC010 07/06 A2968 RMK AO2 SLP076 P0000 T00670056

Get Severe Weather Alerts

Thanks for signing up!

Be on the lookout for a verification email in your inbox.

You'll start receiving the daily forecast at 8 AM.

×

10-Day Weather Forecast

Almanac

Astronomy

Mar. 30, 2017 Rise Set
Actual Time
Civil Twilight
Nautical Twilight
Astronomical Twilight
Moon
Length of Visible Light
Length of Day
Tomorrow will be .
, % of the Moon is Illuminated

Today's Extremes

State Highs State Lows

Community

WunderPhotos

Upload Photos

1,962,540 photos uploaded!

WunderBlog® & News

Nearby

Air Quality

  Air Quality AQ Index Pollutant
Not available.

Snow Depth

Station Depth Elevation

Earthquake Activity

City Distance Mag. Time & Date
Minimum magnitude displayed is 2.5.

Earthquake Activity

City Distance Mag. Time & Date
Minimum magnitude displayed is 2.5.

Coastal Water Temperatures

Place Temperature

Stations

Nearby Weather Stations

Station Location Temp. Windchill Dew Point Humidity Wind Precip. Elev Updated Type
                   

Watches & Warnings

There are currently no watches in effect.